首页
METAR-TAF:

METAR-TAF

机场 :

達爾文國際機場

达尔文, 澳大利亚

纬度: 12-24S, 经度: 130-52E, 海拔: 31米

当前天气观测

该预报发布于31分钟前的13:00 UTC
风速3节,风向南转南东
温度 23°C
湿度 44%
气压 1014 hPa
能见度10公里或以上
1500米以下无云,无积雨云

METAR: YPDN 181300Z 15003KT CAVOK 23/10 Q1014

时间: 23:01 (13:31 UTC)

预报

该预报发布于2小时和27分钟前的11:04 UTC
预报有效从18日的 12点(UTC)到 19日的 18点(UTC)
风速5节,风向东南
能见度10公里或以上
从 19日的 0000点(UTC)
风速13节,风向东转东南
能见度10公里或以上
从 19日的 0800点(UTC)
风速8节,风向
能见度10公里或以上
1500米以下无云,无积雨云
从 19日的 1200点(UTC)
风速5节,风向南转西南
能见度10公里或以上
1500米以下无云,无积雨云
从 19日的 1500点(UTC)
风速5节,风向东南
能见度10公里或以上
1500米以下无云,无积雨云

TAF: YPDN 181104Z 1812/1918 13005KT 9999 FU NSC FM190000 12013KT 9999 NSW NSC FM190800 01008KT CAVOK FM191200 20005KT CAVOK FM191500 13005KT CAVOK

超过4000个机场的气象观测和天气预报(METAR&TAF报告)。

可查询的气象台以黄色和红色小点在地图上表示。

将鼠标移到小点上方,可查看气象台名称。

然后点击查看天气观测和预报。

如需切换地图:点击带黑十字的绿色按钮放大地图;点击带横线的绿色按钮缩小地图;或者点击绿色箭头查看邻近地区的地图。


METAR-TAF: